Time;durP1;ratioP1;P1;durP2;ratioP2;P2;SDS_P1;SDS_P2;PMS_P1;PMS_P2;Temp;Humidity;BMP_temperature;BMP_pressure;BME280_temperature;BME280_humidity;BME280_pressure;Samples;Min_cycle;Max_cycle;Signal;HPM_P1;HPM_P2
2022/12/03 02:20:04;;;;;;;12.70;5.30;;;;;;;-1.71;72.17;101001.71;99985;1319;558889;-67
2022/12/03 02:22:49;;;;;;;10.20;5.40;;;;;;;-1.58;72.02;101007.42;105610;1316;88332;-68
2022/12/03 02:25:21;;;;;;;9.60;5.60;;;;;;;-1.55;71.70;101008.07;105800;1315;137756;-68
2022/12/03 02:27:48;;;;;;;9.40;5.50;;;;;;;-1.52;71.81;101010.07;105874;1314;23069;-68
2022/12/03 02:30:16;;;;;;;;;;;;;;;-1.48;71.70;101009.79;105788;1305;137420;-68
2022/12/03 02:32:42;;;;;;;10.80;5.60;;;;;;;-1.46;71.47;101006.19;105824;1312;22199;-69
2022/12/03 02:35:18;;;;;;;13.00;6.40;;;;;;;-1.46;71.43;101012.73;105844;1308;22222;-69
2022/12/03 02:37:45;;;;;;;10.70;5.70;;;;;;;-1.44;71.67;101009.56;105699;1314;137255;-69
2022/12/03 02:40:15;;;;;;;19.60;6.80;;;;;;;-1.45;71.59;101013.39;105788;1315;22191;-69
2022/12/03 02:42:43;;;;;;;10.10;5.00;;;;;;;-1.46;71.73;101012.60;105664;1313;138079;-60
2022/12/03 02:45:17;;;;;;;11.40;4.60;;;;;;;-1.47;71.40;101010.55;105804;1299;22327;-59
2022/12/03 02:47:46;;;;;;;19.50;7.00;;;;;;;-1.53;71.53;101004.50;105799;1314;22184;-60
2022/12/03 02:50:13;;;;;;;12.50;6.40;;;;;;;-1.52;71.61;101014.52;105534;1305;139052;-60
2022/12/03 02:52:41;;;;;;;9.80;5.40;;;;;;;-1.53;71.68;101015.91;105781;1314;23001;-60
2022/12/03 02:55:08;;;;;;;20.00;6.50;;;;;;;-1.55;71.85;101013.08;105684;1314;137657;-60
2022/12/03 02:57:35;;;;;;;12.00;6.30;;;;;;;-1.56;71.85;101016.52;105822;1314;22228;-60
2022/12/03 03:00:04;;;;;;;15.60;7.90;;;;;;;-1.56;72.01;101014.77;105513;1314;22237;-59
2022/12/03 03:02:31;;;;;;;16.90;9.30;;;;;;;-1.60;72.09;101014.60;105642;1315;139407;-60
2022/12/03 03:04:58;;;;;;;26.70;7.30;;;;;;;-1.56;72.14;101019.71;105974;1305;22257;-60
2022/12/03 03:07:25;;;;;;;24.60;11.10;;;;;;;-1.54;72.26;101021.38;106019;1311;139441;-60
2022/12/03 03:09:51;;;;;;;;;;;;;;;-1.54;72.05;101026.29;106140;1310;22464;-61
2022/12/03 03:12:18;;;;;;;25.50;11.70;;;;;;;-1.59;72.13;101016.77;105995;1311;125956;-59
2022/12/03 03:14:45;;;;;;;13.10;6.20;;;;;;;-1.55;72.46;101027.11;105895;1306;22213;-59
2022/12/03 03:17:12;;;;;;;14.10;7.50;;;;;;;-1.56;72.30;101025.14;106080;1307;22448;-59
2022/12/03 03:19:38;;;;;;;13.90;7.60;;;;;;;-1.58;72.31;101026.13;105902;1313;137151;-57
2022/12/03 03:22:05;;;;;;;14.50;7.10;;;;;;;-1.59;72.52;101027.15;105945;1311;22186;-58
2022/12/03 03:24:32;;;;;;;18.20;8.50;;;;;;;-1.61;72.63;101028.41;105705;1313;137517;-59
2022/12/03 03:26:59;;;;;;;15.10;8.20;;;;;;;-1.64;72.45;101026.38;102499;1313;22506;-58
2022/12/03 03:29:25;;;;;;;12.60;6.30;;;;;;;-1.66;72.57;101027.11;101191;1306;22557;-60
2022/12/03 03:31:52;;;;;;;10.90;6.00;;;;;;;-1.67;72.73;101027.54;101344;1294;137917;-60
2022/12/03 03:34:19;;;;;;;11.60;5.80;;;;;;;-1.68;73.03;101031.24;101421;1319;22566;-59
2022/12/03 03:36:46;;;;;;;11.40;6.10;;;;;;;-1.70;72.83;101033.15;101350;1320;137964;-60
2022/12/03 03:39:13;;;;;;;;;;;;;;;-1.76;73.19;101030.31;101312;1311;22856;-60
2022/12/03 03:41:40;;;;;;;11.10;6.00;;;;;;;-1.71;73.20;101039.70;101536;1295;24208;-60
2022/12/03 03:44:06;;;;;;;14.90;6.60;;;;;;;-1.71;73.27;101042.38;101011;1304;138639;-60
2022/12/03 03:46:34;;;;;;;14.40;7.10;;;;;;;-1.72;73.54;101042.96;101220;1311;25981;-59
2022/12/03 03:49:01;;;;;;;15.60;7.50;;;;;;;-1.72;73.28;101047.96;101214;1307;138523;-59
2022/12/03 03:51:28;;;;;;;15.60;6.80;;;;;;;-1.72;73.58;101049.44;105483;1321;22304;-60
2022/12/03 03:53:55;;;;;;;11.00;5.60;;;;;;;-1.76;73.58;101046.06;105958;1305;23107;-59
2022/12/03 03:56:22;;;;;;;11.50;6.00;;;;;;;-1.72;73.70;101052.95;105704;1299;138866;-59
2022/12/03 03:58:48;;;;;;;13.30;5.50;;;;;;;-1.71;73.73;101056.74;106056;1295;22906;-59
2022/12/03 04:01:15;;;;;;;;;;;;;;;-1.70;74.01;101058.27;105765;1296;138786;-60
2022/12/03 04:03:42;;;;;;;10.00;5.20;;;;;;;-1.68;73.86;101056.22;105892;1313;22479;-57
2022/12/03 04:06:09;;;;;;;14.50;8.10;;;;;;;-1.68;74.15;101059.73;105908;1312;23468;-59
2022/12/03 04:08:36;;;;;;;17.10;7.20;;;;;;;-1.69;73.96;101058.74;105830;1312;138073;-59
2022/12/03 04:13:48;;;;;;;19.90;7.90;;;;;;;-1.70;74.15;101061.48;105841;1312;138127;-60
2022/12/03 04:16:15;;;;;;;11.30;7.10;;;;;;;-1.70;74.11;101064.90;105879;1312;22258;-59
2022/12/03 04:18:42;;;;;;;14.50;7.60;;;;;;;-1.72;73.95;101063.10;105794;1303;138363;-59
2022/12/03 04:23:54;;;;;;;15.90;5.70;;;;;;;-1.75;74.25;101064.48;105937;1311;22213;-59
2022/12/03 04:29:06;;;;;;;15.50;7.10;;;;;;;-1.78;74.27;101069.90;106374;1308;22149;-59
2022/12/03 04:37:04;;;;;;;10.60;6.50;;;;;;;-1.78;74.60;101076.33;106221;1300;138439;-59
2022/12/03 04:39:31;;;;;;;12.00;6.20;;;;;;;-1.77;74.86;101075.52;106363;1308;22132;-59
2022/12/03 04:41:57;;;;;;;;;;;;;;;-1.76;75.08;101079.55;106415;1308;22445;-60
2022/12/03 04:44:36;;;;;;;12.50;6.40;;;;;;;-1.76;75.05;101080.95;106232;1295;124119;-59
2022/12/03 04:47:23;;;;;;;37.20;17.10;;;;;;;-1.75;75.12;101082.34;106408;1300;23461;-60
2022/12/03 04:49:50;;;;;;;24.00;10.10;;;;;;;-1.76;75.00;101082.53;106219;1309;139059;-59
2022/12/03 04:52:17;;;;;;;;;;;;;;;-1.75;75.15;101081.97;106436;1307;22348;-58
2022/12/03 04:54:44;;;;;;;64.20;23.70;;;;;;;-1.75;74.94;101084.61;106293;1308;125513;-58
2022/12/03 04:57:11;;;;;;;11.90;7.10;;;;;;;-1.76;75.21;101085.95;106310;1308;22283;-59
2022/12/03 04:59:38;;;;;;;12.90;6.20;;;;;;;-1.76;75.19;101091.83;106299;1309;23433;-58
2022/12/03 05:02:05;;;;;;;;;;;;;;;-1.77;75.08;101090.14;106228;1307;138690;-59
2022/12/03 05:04:32;;;;;;;8.50;5.60;;;;;;;-1.77;75.18;101092.67;106362;1305;23054;-59
2022/12/03 05:06:58;;;;;;;;;;;;;;;-1.79;75.09;101092.02;106109;1308;139863;-59
2022/12/03 05:09:25;;;;;;;22.90;9.90;;;;;;;-1.78;75.26;101093.96;106339;1308;22154;-59
2022/12/03 05:11:52;;;;;;;;;;;;;;;-1.78;75.30;101096.81;106423;1308;22384;-60
2022/12/03 05:14:19;;;;;;;12.90;6.50;;;;;;;-1.78;75.19;101102.48;106230;1305;125394;-60
2022/12/03 05:16:45;;;;;;;12.60;5.20;;;;;;;-1.78;75.21;101100.74;106322;1298;22276;-59
2022/12/03 05:19:12;;;;;;;9.30;5.00;;;;;;;-1.79;75.36;101104.67;106283;1308;139711;-57
2022/12/03 05:21:39;;;;;;;10.10;5.40;;;;;;;-1.79;75.48;101107.02;106355;1308;23096;-58
2022/12/03 05:24:06;;;;;;;10.00;5.50;;;;;;;-1.77;75.66;101110.64;106325;1301;22193;-58
2022/12/03 05:26:33;;;;;;;20.50;10.20;;;;;;;-1.76;75.52;101113.52;106252;1303;139711;-59
2022/12/03 05:29:00;;;;;;;16.00;7.90;;;;;;;-1.79;75.52;101109.02;106393;1308;22910;-60
2022/12/03 05:31:26;;;;;;;14.50;6.20;;;;;;;-1.73;75.62;101119.00;106287;1305;139604;-60
2022/12/03 05:33:54;;;;;;;19.70;9.90;;;;;;;-1.73;75.67;101121.24;106372;1303;22115;-60
2022/12/03 05:36:20;;;;;;;23.90;10.60;;;;;;;-1.72;75.79;101126.73;106209;1308;139522;-60
2022/12/03 05:38:47;;;;;;;;;;;;;;;-1.71;75.80;101122.16;106587;1305;22348;-59
2022/12/03 05:43:59;;;;;;;10.90;5.20;;;;;;;-1.71;75.95;101125.03;106441;1303;138573;-59
2022/12/03 05:46:26;;;;;;;;;;;;;;;-1.70;75.77;101130.29;106571;1305;22348;-61
2022/12/03 05:48:53;;;;;;;11.10;5.80;;;;;;;-1.70;75.91;101126.89;106456;1304;124491;-59
2022/12/03 05:51:20;;;;;;;;;;;;;;;-1.70;76.01;101127.79;106550;1305;22449;-59
2022/12/03 05:53:47;;;;;;;8.70;4.20;;;;;;;-1.71;76.09;101132.11;106517;1305;22953;-59
2022/12/03 05:56:14;;;;;;;7.40;4.70;;;;;;;-1.72;75.98;101134.20;106431;1305;138442;-60
2022/12/03 05:58:40;;;;;;;9.40;5.50;;;;;;;-1.72;76.20;101134.34;106542;1305;22386;-60
2022/12/03 06:01:07;;;;;;;10.60;5.30;;;;;;;-1.73;76.25;101139.14;106455;1305;137705;-59
2022/12/03 06:03:34;;;;;;;10.10;5.40;;;;;;;-1.75;76.28;101141.84;106551;1307;22910;-60
2022/12/03 06:06:01;;;;;;;;;;;;;;;-1.75;76.29;101145.91;106565;1304;22435;-60
2022/12/03 06:08:27;;;;;;;11.60;5.40;;;;;;;-1.74;76.68;101150.27;106509;1303;125916;-60
2022/12/03 06:10:54;;;;;;;12.90;6.80;;;;;;;-1.74;76.70;101150.76;106590;1296;22151;-59
2022/12/03 06:13:21;;;;;;;12.30;6.30;;;;;;;-1.73;76.49;101155.84;106452;1303;138331;-60
2022/12/03 06:15:47;;;;;;;65.10;31.00;;;;;;;-1.72;76.72;101157.65;106560;1306;22866;-60
2022/12/03 06:18:14;;;;;;;;;;;;;;;-1.71;76.81;101153.89;106458;1305;138693;-63
2022/12/03 06:20:41;;;;;;;13.80;7.70;;;;;;;-1.68;77.02;101156.31;106548;1304;22218;-62
2022/12/03 06:23:08;;;;;;;11.30;7.30;;;;;;;-1.67;76.85;101156.94;106575;1305;22138;-62
2022/12/03 06:25:34;;;;;;;12.00;6.30;;;;;;;-1.68;76.94;101157.70;106506;1305;137990;-62
2022/12/03 06:28:01;;;;;;;14.00;7.30;;;;;;;-1.69;76.95;101163.82;106516;1299;22231;-63
2022/12/03 06:30:28;;;;;;;;;;;;;;;-1.69;77.36;101162.27;106462;1303;138721;-62
2022/12/03 06:32:56;;;;;;;28.90;13.90;;;;;;;-1.69;77.42;101169.89;106533;1304;22414;-62
2022/12/03 06:35:23;;;;;;;21.40;8.40;;;;;;;-1.68;77.47;101170.49;106539;1305;22147;-62
2022/12/03 06:37:50;;;;;;;17.70;8.00;;;;;;;-1.68;77.92;101170.18;106414;1295;139300;-62
2022/12/03 06:40:16;;;;;;;55.50;19.00;;;;;;;-1.69;77.70;101173.08;106554;1305;22103;-63
2022/12/03 06:42:43;;;;;;;32.50;14.10;;;;;;;-1.70;78.15;101175.83;106424;1296;138416;-62
2022/12/03 06:45:10;;;;;;;;;;;;;;;-1.70;78.35;101180.47;106550;1305;22349;-63
2022/12/03 06:47:37;;;;;;;34.30;18.70;;;;;;;-1.70;78.60;101182.10;106520;1290;22283;-64
2022/12/03 06:50:05;;;;;;;61.00;21.00;;;;;;;-1.69;78.60;101186.66;106458;1305;138995;-62
2022/12/03 06:52:32;;;;;;;27.70;13.10;;;;;;;-1.69;78.97;101184.84;106546;1297;22149;-63
2022/12/03 06:54:59;;;;;;;60.00;17.30;;;;;;;-1.68;79.09;101191.16;106377;1300;140701;-62
2022/12/03 06:57:25;;;;;;;235.00;62.40;;;;;;;-1.68;79.45;101190.44;106516;1296;22219;-62
2022/12/03 06:59:52;;;;;;;;;;;;;;;-1.67;79.77;101195.35;106608;1305;23097;-61
2022/12/03 07:02:19;;;;;;;274.20;73.20;;;;;;;-1.68;79.91;101197.20;106418;1305;126073;-60
2022/12/03 07:04:46;;;;;;;186.70;54.80;;;;;;;-1.70;80.19;101195.61;106569;1305;22936;-61
2022/12/03 07:07:13;;;;;;;;;;;;;;;-1.70;80.51;101194.95;106474;1305;139574;-60
2022/12/03 07:09:40;;;;;;;126.00;54.10;;;;;;;-1.71;80.45;101194.98;106493;1301;22634;-60
2022/12/03 07:12:06;;;;;;;74.00;31.40;;;;;;;-1.70;80.98;101194.73;106557;1302;23432;-60
2022/12/03 07:14:33;;;;;;;26.40;13.80;;;;;;;-1.71;81.25;101198.23;106463;1303;138666;-60
2022/12/03 07:17:00;;;;;;;40.80;17.70;;;;;;;-1.73;81.51;101197.55;103178;1303;22564;-61
2022/12/03 07:19:27;;;;;;;36.70;15.50;;;;;;;-1.77;81.81;101196.14;102120;1289;138308;-60
2022/12/03 07:21:58;;;;;;;50.00;22.50;;;;;;;-1.79;81.92;101206.05;102177;1297;24331;-60
2022/12/03 07:24:25;;;;;;;;;;;;;;;-1.82;82.44;101204.50;102144;1289;139204;-61
2022/12/03 07:26:52;;;;;;;27.10;15.30;;;;;;;-1.87;82.75;101203.05;102262;1296;24274;-60
2022/12/03 07:29:19;;;;;;;46.70;23.80;;;;;;;-1.92;83.24;101205.66;102168;1288;25248;-61
2022/12/03 07:31:45;;;;;;;;;;;;;;;-1.96;83.24;101205.48;102161;1291;138564;-62
2022/12/03 07:34:12;;;;;;;39.70;16.60;;;;;;;-1.99;83.75;101206.27;102236;1284;24205;-61
2022/12/03 07:36:39;;;;;;;24.70;11.40;;;;;;;-2.02;84.26;101206.69;102195;1299;138771;-61
2022/12/03 07:39:06;;;;;;;23.40;10.10;;;;;;;-2.02;84.49;101211.36;102246;1296;22495;-61
2022/12/03 07:41:32;;;;;;;35.50;14.90;;;;;;;-2.05;84.45;101213.60;102249;1303;24370;-61
2022/12/03 07:44:00;;;;;;;22.30;10.60;;;;;;;-2.09;84.51;101210.91;106216;1313;139370;-60
2022/12/03 07:46:26;;;;;;;36.50;16.40;;;;;;;-2.10;84.98;101217.59;106631;1305;22232;-71
2022/12/03 07:48:53;;;;;;;55.50;30.30;;;;;;;-2.11;85.18;101220.35;106488;1303;140856;-70
2022/12/03 07:51:20;;;;;;;;;;;;;;;-2.13;85.61;101217.50;106621;1305;22376;-70
2022/12/03 07:53:47;;;;;;;49.30;19.00;;;;;;;-2.12;85.56;101221.83;106535;1298;23190;-71
2022/12/03 07:56:13;;;;;;;36.00;14.00;;;;;;;-2.11;85.98;101224.81;106457;1305;138272;-71
2022/12/03 07:58:40;;;;;;;39.10;17.60;;;;;;;-2.11;85.90;101226.92;106574;1305;22152;-71
2022/12/03 08:01:07;;;;;;;37.60;16.50;;;;;;;-2.10;85.83;101230.58;106497;1290;138379;-70
2022/12/03 08:03:34;;;;;;;;;;;;;;;-2.12;85.64;101231.30;106659;1290;22405;-70
2022/12/03 08:06:00;;;;;;;28.50;12.50;;;;;;;-2.13;85.78;101232.75;106553;1298;22139;-71
2022/12/03 08:08:27;;;;;;;23.60;13.10;;;;;;;-2.13;86.12;101234.73;106508;1304;138390;-71
2022/12/03 08:10:54;;;;;;;20.30;9.60;;;;;;;-2.11;86.08;101238.64;106526;1305;22367;-71
2022/12/03 08:13:21;;;;;;;20.20;9.60;;;;;;;-2.08;85.98;101237.01;106484;1297;139926;-71
2022/12/03 08:15:47;;;;;;;27.90;9.40;;;;;;;-2.06;85.89;101239.29;105466;1286;22511;-70
2022/12/03 08:18:16;;;;;;;28.60;12.30;;;;;;;-2.05;85.98;101240.59;102139;1313;138214;-70
2022/12/03 08:20:44;;;;;;;32.20;13.30;;;;;;;-2.04;85.69;101242.67;106514;1306;23154;-70
2022/12/03 08:23:21;;;;;;;27.10;11.80;;;;;;;-2.08;85.73;101238.02;106521;1306;22593;-70
2022/12/03 08:25:49;;;;;;;38.20;14.50;;;;;;;-2.08;85.71;101238.02;106420;1305;138281;-72
2022/12/03 08:28:23;;;;;;;23.40;11.50;;;;;;;-2.07;85.94;101235.30;106503;1306;22402;-71
2022/12/03 08:31:11;;;;;;;33.80;21.90;;;;;;;-2.07;85.78;101232.46;106354;1293;141511;-71
2022/12/03 08:33:38;;;;;;;37.50;23.60;;;;;;;-2.02;85.78;101240.84;106477;1307;22125;-71
2022/12/03 08:36:25;;;;;;;49.90;26.50;;;;;;;-1.98;85.46;101239.48;106527;1305;22158;-71
2022/12/03 08:38:59;;;;;;;26.10;11.80;;;;;;;-1.95;85.29;101237.95;106441;1300;22116;-72
2022/12/03 08:44:37;;;;;;;62.80;23.00;;;;;;;-1.91;85.05;101236.68;106407;1306;139541;-70
2022/12/03 08:47:23;;;;;;;74.90;29.10;;;;;;;-1.88;85.06;101238.58;106500;1306;22140;-71
2022/12/03 08:49:54;;;;;;;22.40;10.90;;;;;;;-1.84;85.17;101235.53;106482;1305;139037;-71
2022/12/03 08:52:21;;;;;;;97.00;49.90;;;;;;;-1.84;84.85;101234.94;106644;1299;22151;-71
2022/12/03 08:54:52;;;;;;;72.90;33.20;;;;;;;-1.84;85.02;101236.80;106514;1305;138031;-71
2022/12/03 08:57:42;;;;;;;242.00;60.20;;;;;;;-1.86;84.86;101235.52;106608;1306;22098;-71
2022/12/03 09:00:21;;;;;;;158.40;45.00;;;;;;;-1.88;84.89;101237.27;106602;1305;22149;-72
2022/12/03 09:02:52;;;;;;;171.50;49.00;;;;;;;-1.87;84.77;101235.47;106636;1305;22036;-72
2022/12/03 09:05:22;;;;;;;89.50;28.50;;;;;;;-1.88;84.81;101242.34;106599;1303;22135;-72
2022/12/03 09:07:49;;;;;;;199.40;59.40;;;;;;;-1.91;84.55;101237.73;106538;1306;139385;-72
2022/12/03 09:10:16;;;;;;;65.60;29.10;;;;;;;-1.92;84.59;101239.12;106633;1306;22226;-72
2022/12/03 09:12:43;;;;;;;64.80;21.30;;;;;;;-1.93;84.34;101237.06;106478;1305;140196;-71
2022/12/03 09:15:10;;;;;;;102.20;34.70;;;;;;;-1.93;84.35;101235.63;105323;1298;25468;-71
2022/12/03 09:17:36;;;;;;;;;;;;;;;-1.93;84.44;101232.96;102364;1298;24254;-72
2022/12/03 09:20:04;;;;;;;26.80;12.10;;;;;;;-1.92;84.65;101239.80;102175;1304;124486;-71
2022/12/03 09:22:31;;;;;;;34.10;13.80;;;;;;;-1.92;84.47;101237.13;102336;1298;22823;-71
2022/12/03 09:24:57;;;;;;;34.30;16.60;;;;;;;-1.93;84.65;101238.16;102306;1304;138490;-72
2022/12/03 09:27:24;;;;;;;;;;;;;;;-1.96;84.62;101238.70;102499;1305;25367;-71
2022/12/03 09:29:51;;;;;;;117.60;42.20;;;;;;;-1.99;84.54;101237.02;102408;1304;22508;-71
2022/12/03 09:32:18;;;;;;;52.00;25.60;;;;;;;-2.03;84.53;101235.45;102201;1296;139005;-71
2022/12/03 09:34:45;;;;;;;;;;;;;;;-2.07;84.75;101237.29;102263;1304;22610;-72
2022/12/03 09:37:11;;;;;;;78.80;24.20;;;;;;;-2.10;84.65;101235.36;102254;1289;124412;-71
2022/12/03 09:39:38;;;;;;;64.80;23.60;;;;;;;-2.12;84.97;101235.20;102333;1282;23621;-71
2022/12/03 09:42:05;;;;;;;62.00;25.50;;;;;;;-2.14;84.83;101240.00;102020;1290;25440;-70
2022/12/03 09:44:32;;;;;;;51.40;21.80;;;;;;;-2.16;85.12;101243.02;102301;1296;138308;-71
2022/12/03 09:47:00;;;;;;;34.60;12.90;;;;;;;-2.18;84.77;101243.69;102258;1288;22477;-71
2022/12/03 09:49:27;;;;;;;80.30;35.50;;;;;;;-2.21;84.75;101249.30;102010;1300;138586;-71
2022/12/03 09:51:56;;;;;;;91.40;53.10;;;;;;;-2.23;84.82;101250.17;102380;1284;24030;-71
2022/12/03 09:54:25;;;;;;;78.50;36.00;;;;;;;-2.24;84.71;101250.67;102223;1288;139420;-72
2022/12/03 09:56:53;;;;;;;70.10;25.80;;;;;;;-2.25;84.81;101255.21;102463;1306;22840;-66
2022/12/03 09:59:20;;;;;;;71.70;27.20;;;;;;;-2.26;84.78;101259.20;106633;1303;22309;-65
2022/12/03 10:01:47;;;;;;;63.10;25.80;;;;;;;-2.27;84.84;101261.36;106437;1305;139252;-66
2022/12/03 10:04:13;;;;;;;;;;;;;;;-2.27;84.82;101264.77;106477;1293;22378;-65
2022/12/03 10:06:40;;;;;;;63.30;25.00;;;;;;;-2.27;84.80;101272.06;106443;1305;124575;-65
2022/12/03 10:09:13;;;;;;;44.70;21.20;;;;;;;-2.26;85.07;101268.81;106751;1306;22240;-66
2022/12/03 10:11:40;;;;;;;27.40;14.80;;;;;;;-2.27;85.09;101266.87;106579;1286;22875;-66
2022/12/03 10:14:09;;;;;;;41.50;18.50;;;;;;;-2.27;84.90;101268.91;106448;1306;138398;-66
2022/12/03 10:16:38;;;;;;;84.90;37.20;;;;;;;-2.30;85.08;101272.21;106492;1306;22177;-66
2022/12/03 10:19:18;;;;;;;43.70;19.40;;;;;;;-2.34;84.82;101275.05;106471;1303;139699;-66
2022/12/03 10:21:51;;;;;;;53.40;22.00;;;;;;;-2.39;84.60;101270.98;106671;1303;22155;-67
2022/12/03 10:24:30;;;;;;;36.90;16.60;;;;;;;-2.41;84.79;101266.06;106591;1294;140229;-66
2022/12/03 10:27:02;;;;;;;33.70;14.70;;;;;;;-2.42;84.88;101268.61;106711;1302;22404;-72
2022/12/03 10:29:33;;;;;;;33.00;18.20;;;;;;;-2.42;84.72;101271.05;106685;1303;22264;-73
2022/12/03 10:32:08;;;;;;;25.40;13.20;;;;;;;-2.42;84.65;101271.44;106428;1288;140164;-72
2022/12/03 10:34:39;;;;;;;29.00;12.40;;;;;;;-2.41;84.56;101269.55;106751;1295;22580;-73
2022/12/03 10:37:16;;;;;;;112.60;32.20;;;;;;;-2.39;84.44;101276.02;105135;1289;139191;-72
2022/12/03 10:39:59;;;;;;;159.50;38.10;;;;;;;-2.38;84.40;101268.08;102444;1285;22975;-73
2022/12/03 10:42:28;;;;;;;94.90;24.90;;;;;;;-2.35;84.18;101266.22;106292;1313;138543;-73
2022/12/03 10:45:10;;;;;;;183.80;39.90;;;;;;;-2.31;84.09;101265.31;106757;1294;22145;-72
2022/12/03 10:47:37;;;;;;;74.60;39.70;;;;;;;-2.28;84.04;101268.21;106756;1303;23120;-74
2022/12/03 10:50:12;;;;;;;151.90;66.60;;;;;;;-2.32;83.59;101261.70;106630;1303;138996;-62
2022/12/03 10:52:39;;;;;;;169.60;48.10;;;;;;;-2.29;83.27;101270.50;106746;1303;22104;-62
2022/12/03 10:55:09;;;;;;;96.50;28.80;;;;;;;-2.35;83.20;101262.84;106566;1303;139137;-62
2022/12/03 10:57:37;;;;;;;33.30;15.30;;;;;;;-2.32;83.19;101269.86;106755;1302;22146;-62
2022/12/03 11:00:15;;;;;;;37.30;15.60;;;;;;;-2.31;83.03;101269.27;106725;1303;22163;-62
2022/12/03 11:02:42;;;;;;;26.20;12.70;;;;;;;-2.31;82.97;101263.77;106658;1303;138644;-62
2022/12/03 11:05:19;;;;;;;;;;;;;;;-2.32;82.88;101275.03;106750;1302;22452;-62
2022/12/03 11:07:59;;;;;;;16.80;9.60;;;;;;;-2.35;82.58;101278.84;106523;1303;126097;-62
2022/12/03 11:10:26;;;;;;;;;;;;;;;-2.39;82.36;101279.95;106725;1303;23273;-62
2022/12/03 11:13:26;;;;;;;64.70;21.60;;;;;;;-2.44;82.47;101282.62;106457;1303;124630;-62
2022/12/03 11:15:59;;;;;;;36.70;13.40;;;;;;;-2.49;82.64;101285.73;106101;1311;23213;-62
2022/12/03 11:18:33;;;;;;;122.00;31.80;;;;;;;-2.50;82.61;101290.42;105772;1304;140062;-62
2022/12/03 11:21:02;;;;;;;46.00;19.20;;;;;;;-2.54;82.35;101291.29;106099;1311;22185;-61
2022/12/03 11:24:01;;;;;;;48.10;25.60;;;;;;;-2.56;82.50;101292.38;106068;1302;23046;-62
2022/12/03 11:26:48;;;;;;;20.60;11.60;;;;;;;-2.57;82.73;101301.17;105952;1302;140017;-61
2022/12/03 11:29:57;;;;;;;27.70;12.30;;;;;;;-2.61;83.14;101295.67;106071;1297;22335;-60
2022/12/03 11:32:42;;;;;;;51.60;21.90;;;;;;;-2.55;83.31;101306.34;105535;1317;139963;-61
2022/12/03 11:35:14;;;;;;;72.50;30.00;;;;;;;-2.56;83.38;101304.05;105523;1306;22184;-56
2022/12/03 11:37:40;;;;;;;30.60;14.10;;;;;;;-2.57;83.55;101301.33;105541;1314;139476;-61
2022/12/03 11:40:16;;;;;;;;;;;;;;;-2.56;83.85;101299.67;105489;1317;22384;-61
2022/12/03 11:42:44;;;;;;;45.70;19.80;;;;;;;-2.54;84.05;101300.59;105548;1308;125123;-61
2022/12/03 11:45:33;;;;;;;23.10;12.00;;;;;;;-2.55;84.39;101297.41;105524;1312;22167;-61
2022/12/03 11:48:03;;;;;;;135.30;59.50;;;;;;;-2.59;84.02;101296.17;105472;1309;22240;-60
2022/12/03 11:50:33;;;;;;;63.30;25.10;;;;;;;-2.55;83.97;101304.02;105382;1309;139641;-59
2022/12/03 11:53:12;;;;;;;63.70;25.40;;;;;;;-2.53;83.61;101306.35;105779;1311;22461;-59
2022/12/03 11:55:43;;;;;;;44.90;19.30;;;;;;;-2.50;83.47;101307.84;106037;1310;139982;-59
2022/12/03 11:58:27;;;;;;;32.00;13.00;;;;;;;-2.47;82.43;101308.40;106135;1310;22170;-59
2022/12/03 12:00:55;;;;;;;32.20;11.80;;;;;;;-2.49;82.35;101305.16;106010;1294;138729;-60
2022/12/03 12:03:31;;;;;;;18.20;9.90;;;;;;;-2.47;82.14;101308.03;105043;1295;25471;-59
2022/12/03 12:06:13;;;;;;;14.70;7.20;;;;;;;-2.46;81.95;101310.77;106107;1295;22184;-59
2022/12/03 12:08:46;;;;;;;19.70;9.10;;;;;;;-2.47;81.42;101315.46;106103;1296;140255;-60
2022/12/03 12:11:24;;;;;;;14.90;8.30;;;;;;;-2.51;81.27;101317.52;106473;1283;22179;-60
2022/12/03 12:13:53;;;;;;;18.30;9.00;;;;;;;-2.53;81.60;101320.43;106530;1303;138806;-60
2022/12/03 12:16:51;;;;;;;22.50;10.80;;;;;;;-2.56;81.92;101322.05;102986;1295;22553;-60
2022/12/03 12:19:35;;;;;;;37.20;16.00;;;;;;;-2.59;82.33;101320.25;102315;1281;138272;-60
2022/12/03 12:22:26;;;;;;;22.30;10.90;;;;;;;-2.64;82.57;101319.95;106380;1297;22235;-59
2022/12/03 12:25:10;;;;;;;15.40;8.70;;;;;;;-2.70;83.01;101329.48;106623;1282;140880;-61
2022/12/03 12:27:46;;;;;;;28.10;16.00;;;;;;;-2.75;83.39;101330.48;106773;1303;22217;-59
2022/12/03 12:30:24;;;;;;;59.90;25.80;;;;;;;-2.81;84.04;101334.36;106604;1297;138708;-61
2022/12/03 12:32:52;;;;;;;;;;;;;;;-2.86;84.27;101333.66;106740;1287;23172;-60
2022/12/03 12:35:31;;;;;;;50.00;20.70;;;;;;;-2.89;84.72;101335.39;106698;1288;22133;-61
2022/12/03 12:38:10;;;;;;;46.50;15.60;;;;;;;-2.92;84.96;101335.98;106570;1296;138388;-61
2022/12/03 12:40:37;;;;;;;;;;;;;;;-2.92;85.56;101340.92;106604;1288;23561;-58
2022/12/03 12:43:24;;;;;;;26.70;12.70;;;;;;;-2.90;85.88;101345.77;106646;1296;124744;-60
2022/12/03 12:45:54;;;;;;;23.40;11.10;;;;;;;-2.92;85.85;101348.61;106744;1282;22146;-60
2022/12/03 12:48:32;;;;;;;20.50;10.40;;;;;;;-2.94;86.14;101346.44;106457;1294;138645;-60
2022/12/03 12:51:19;;;;;;;58.70;23.30;;;;;;;-2.94;86.16;101349.78;106583;1288;22149;-60
2022/12/03 12:53:46;;;;;;;35.60;14.90;;;;;;;-2.95;86.34;101353.30;106664;1302;22154;-60
2022/12/03 12:56:28;;;;;;;26.00;12.60;;;;;;;-2.96;86.30;101355.85;106494;1305;140741;-60
2022/12/03 12:58:58;;;;;;;26.70;13.40;;;;;;;-2.96;86.58;101360.70;106484;1304;22249;-60
2022/12/03 13:01:26;;;;;;;23.70;11.30;;;;;;;-2.94;86.50;101363.51;106420;1296;139092;-61
2022/12/03 13:03:54;;;;;;;17.50;10.30;;;;;;;-2.94;86.87;101361.17;106657;1303;22336;-60
2022/12/03 13:06:24;;;;;;;18.70;9.80;;;;;;;-2.93;86.78;101365.39;106513;1303;140225;-61
2022/12/03 13:08:51;;;;;;;21.70;10.90;;;;;;;-2.93;86.82;101367.14;106750;1302;22235;-60
2022/12/03 13:11:21;;;;;;;;;;;;;;;-2.92;87.10;101367.80;106651;1303;23203;-60
2022/12/03 13:13:48;;;;;;;30.00;14.70;;;;;;;-2.90;87.19;101369.64;106631;1301;126205;-60
2022/12/03 13:16:27;;;;;;;;;;;;;;;-2.89;87.46;101372.54;106744;1303;22414;-60
2022/12/03 13:18:58;;;;;;;25.90;12.60;;;;;;;-2.91;87.41;101375.52;106648;1296;125304;-60
2022/12/03 13:21:34;;;;;;;18.60;10.90;;;;;;;-2.97;87.39;101370.38;106751;1302;22880;-59
2022/12/03 13:24:00;;;;;;;79.30;37.60;;;;;;;-2.95;87.60;101378.02;106732;1303;22116;-61
2022/12/03 13:26:31;;;;;;;;;;;;;;;-2.97;88.07;101378.85;106659;1281;139386;-60
2022/12/03 13:29:13;;;;;;;21.70;13.50;;;;;;;-2.99;88.10;101378.46;106594;1303;22673;-60
2022/12/03 13:31:40;;;;;;;22.40;12.50;;;;;;;-3.02;88.20;101377.49;106585;1302;139321;-60
2022/12/03 13:34:25;;;;;;;28.70;15.00;;;;;;;-3.05;88.36;101382.35;106733;1288;22211;-60
2022/12/03 13:36:52;;;;;;;29.40;14.00;;;;;;;-3.10;88.85;101376.06;106616;1288;139478;-59
2022/12/03 13:39:32;;;;;;;49.60;22.40;;;;;;;-3.08;88.88;101384.02;106564;1298;22143;-59
2022/12/03 13:42:41;;;;;;;34.40;12.80;;;;;;;-3.10;88.95;101389.36;106618;1296;22202;-59
2022/12/03 13:45:14;;;;;;;79.30;29.30;;;;;;;-3.13;89.00;101392.08;106597;1277;22161;-60
2022/12/03 13:47:42;;;;;;;58.50;29.00;;;;;;;-3.17;89.21;101388.92;106704;1303;23185;-60
2022/12/03 13:50:20;;;;;;;30.40;16.00;;;;;;;-3.21;89.11;101390.98;106627;1297;139360;-60
2022/12/03 13:52:57;;;;;;;31.50;13.30;;;;;;;-3.24;89.43;101400.59;106675;1306;22188;-60
2022/12/03 13:55:46;;;;;;;54.30;33.00;;;;;;;-3.24;89.56;101399.92;106454;1303;138515;-60
2022/12/03 13:58:13;;;;;;;125.70;40.30;;;;;;;-3.25;89.62;101402.84;106701;1303;23579;-60
2022/12/03 14:00:39;;;;;;;240.70;66.00;;;;;;;-3.27;89.85;101409.20;106558;1298;139555;-59
2022/12/03 14:03:06;;;;;;;;;;;;;;;-3.27;90.16;101407.98;106705;1303;22366;-60